createdAt,value
2023-05-08T00:02:07.807Z,85.95
2023-05-08T00:04:34.238Z,87.45
2023-05-08T00:07:00.652Z,84.80
2023-05-08T00:09:26.996Z,75.00
2023-05-08T00:11:53.323Z,76.93
2023-05-08T00:14:19.668Z,77.45
2023-05-08T00:16:46.046Z,84.38
2023-05-08T00:19:12.381Z,77.57
2023-05-08T00:21:39.028Z,76.72
2023-05-08T00:24:05.457Z,84.10
2023-05-08T00:26:31.905Z,69.93
2023-05-08T00:28:58.209Z,70.22
2023-05-08T00:31:24.566Z,82.22
2023-05-08T00:33:50.890Z,63.75
2023-05-08T00:36:17.384Z,85.32
2023-05-08T00:38:43.832Z,70.05
2023-05-08T00:41:10.220Z,66.72
2023-05-08T00:43:37.625Z,73.55
2023-05-08T00:46:04.148Z,70.05
2023-05-08T00:48:31.987Z,67.80
2023-05-08T00:50:58.435Z,73.55
2023-05-08T00:53:26.325Z,76.10
2023-05-08T00:55:52.792Z,86.93
2023-05-08T00:58:19.667Z,72.50
2023-05-08T01:00:46.599Z,70.93
2023-05-08T01:03:14.059Z,80.60
2023-05-08T01:05:41.047Z,74.53
2023-05-08T01:08:07.592Z,72.50
2023-05-08T01:10:47.033Z,72.95
2023-05-08T01:13:45.612Z,69.13
2023-05-08T01:16:15.889Z,67.28
2023-05-08T01:18:47.729Z,62.60
2023-05-08T01:21:32.334Z,74.90
2023-05-08T01:24:14.161Z,69.60
2023-05-08T01:26:55.679Z,66.90
2023-05-08T01:29:37.328Z,75.22
2023-05-08T01:32:07.490Z,67.55
2023-05-08T01:34:35.267Z,73.57
2023-05-08T01:37:06.615Z,72.53
2023-05-08T01:39:44.949Z,65.07
2023-05-08T01:42:11.250Z,68.82
2023-05-08T01:44:39.019Z,74.35
2023-05-08T01:47:06.849Z,74.45
2023-05-08T01:49:39.242Z,77.35
2023-05-08T01:52:24.913Z,81.13
2023-05-08T01:57:18.504Z,58.50
2023-05-08T01:59:45.759Z,70.05
2023-05-08T02:02:13.166Z,70.13
2023-05-08T02:04:41.095Z,71.10
2023-05-08T02:07:08.045Z,83.80
2023-05-08T02:09:34.782Z,75.28
2023-05-08T02:12:02.945Z,87.43
2023-05-08T02:14:30.411Z,83.30
2023-05-08T02:16:57.653Z,76.88
2023-05-08T02:19:25.290Z,85.63
2023-05-08T02:21:52.294Z,84.85
2023-05-08T02:24:18.682Z,87.80
2023-05-08T02:26:46.085Z,75.20
2023-05-08T02:29:12.552Z,88.07
2023-05-08T02:31:39.717Z,78.70
2023-05-08T02:34:06.420Z,80.65
2023-05-08T02:36:32.896Z,93.85
2023-05-08T02:38:59.938Z,93.45
2023-05-08T02:41:29.289Z,92.10
2023-05-08T02:43:55.769Z,89.00
2023-05-08T02:46:34.733Z,86.18
2023-05-08T02:49:07.185Z,60.60
2023-05-08T02:51:39.517Z,17.80
2023-05-08T02:54:10.326Z,93.22
2023-05-08T02:56:56.965Z,18.50
2023-05-08T02:59:27.262Z,32.85
2023-05-08T03:02:03.098Z,43.85
2023-05-08T03:04:32.312Z,47.03
2023-05-08T03:06:59.433Z,31.35
2023-05-08T03:09:28.270Z,39.67
2023-05-08T03:11:59.253Z,33.70
2023-05-08T03:14:27.019Z,39.60
2023-05-08T03:16:53.874Z,47.47
2023-05-08T03:19:39.071Z,56.85
2023-05-08T03:22:06.291Z,36.95
2023-05-08T03:24:34.569Z,36.10
2023-05-08T03:27:02.262Z,46.83
2023-05-08T03:29:28.935Z,42.90
2023-05-08T03:31:56.729Z,50.58
2023-05-08T03:34:23.413Z,46.97
2023-05-08T03:36:50.746Z,39.40
2023-05-08T03:39:17.156Z,39.38
2023-05-08T03:41:43.546Z,45.85
2023-05-08T03:44:10.825Z,43.05
2023-05-08T03:46:37.991Z,40.90
2023-05-08T03:49:04.583Z,40.25
2023-05-08T03:51:32.327Z,74.72
2023-05-08T03:53:58.904Z,85.20
2023-05-08T03:56:26.120Z,76.07
2023-05-08T03:59:14.283Z,76.93
2023-05-08T04:01:50.155Z,81.68
2023-05-08T04:04:17.578Z,74.28
2023-05-08T04:06:50.810Z,80.80
2023-05-08T04:09:19.829Z,74.80
2023-05-08T04:11:58.427Z,6.40
2023-05-08T04:14:26.193Z,7.35
2023-05-08T04:16:53.655Z,11.25
2023-05-08T04:19:25.338Z,10.70
2023-05-08T04:21:55.756Z,11.02
2023-05-08T04:24:22.820Z,11.38
2023-05-08T04:26:49.652Z,10.20
2023-05-08T04:29:16.602Z,12.07
2023-05-08T04:31:43.253Z,9.98
2023-05-08T04:34:09.881Z,11.73
2023-05-08T04:36:36.577Z,9.68
2023-05-08T04:39:03.456Z,9.88
2023-05-08T04:41:29.877Z,10.63
2023-05-08T04:43:56.600Z,10.88
2023-05-08T04:46:24.769Z,10.98
2023-05-08T04:48:51.215Z,10.05
2023-05-08T04:51:17.557Z,12.27
2023-05-08T04:53:43.931Z,11.48
2023-05-08T04:56:10.326Z,11.57
2023-05-08T04:58:36.660Z,14.75
2023-05-08T05:01:03.815Z,13.65
2023-05-08T05:03:30.243Z,15.00
2023-05-08T05:06:00.358Z,13.63
2023-05-08T05:08:27.305Z,16.80
2023-05-08T05:10:53.670Z,16.90
2023-05-08T05:13:20.277Z,15.10
2023-05-08T05:15:46.743Z,16.05
2023-05-08T05:18:13.174Z,17.42
2023-05-08T05:20:39.559Z,15.57
2023-05-08T05:23:05.860Z,16.70
2023-05-08T05:25:32.276Z,16.23
2023-05-08T05:27:58.556Z,17.40
2023-05-08T05:30:24.859Z,18.42
2023-05-08T05:32:51.172Z,18.42
2023-05-08T05:35:17.541Z,15.65
2023-05-08T05:37:43.904Z,15.82
2023-05-08T05:40:13.093Z,17.98
2023-05-08T05:42:39.417Z,14.38
2023-05-08T05:45:05.995Z,18.90
2023-05-08T05:47:32.348Z,19.50
2023-05-08T05:49:58.900Z,16.45
2023-05-08T05:52:25.282Z,16.85
2023-05-08T05:54:51.663Z,18.35
2023-05-08T05:57:18.028Z,18.13
2023-05-08T05:59:44.592Z,18.27
2023-05-08T06:02:14.442Z,19.17
2023-05-08T06:04:40.848Z,20.35
2023-05-08T06:07:07.169Z,18.70
2023-05-08T06:09:33.693Z,18.58
2023-05-08T06:12:00.021Z,18.05
2023-05-08T06:14:26.758Z,20.23
2023-05-08T06:16:53.172Z,21.10
2023-05-08T06:19:19.516Z,18.83
2023-05-08T06:21:45.828Z,20.35
2023-05-08T06:24:12.167Z,19.75
2023-05-08T06:26:38.503Z,19.10
2023-05-08T06:29:04.837Z,19.20
2023-05-08T06:31:31.312Z,20.75
2023-05-08T06:33:57.743Z,17.83
2023-05-08T06:36:24.089Z,18.27
2023-05-08T06:38:50.520Z,19.27
2023-05-08T06:41:16.861Z,20.63
2023-05-08T06:43:43.186Z,20.38
2023-05-08T06:46:09.585Z,21.15
2023-05-08T06:48:36.024Z,20.25
2023-05-08T06:51:03.644Z,22.58
2023-05-08T06:53:30.301Z,22.75
2023-05-08T06:55:59.787Z,20.35
2023-05-08T06:58:26.204Z,20.65
2023-05-08T07:00:52.551Z,21.27
2023-05-08T07:03:18.909Z,23.02
2023-05-08T07:05:45.260Z,74.47
2023-05-08T07:08:11.540Z,68.63
2023-05-08T07:10:37.926Z,70.70
2023-05-08T07:13:04.302Z,70.82
2023-05-08T07:15:33.468Z,75.75
2023-05-08T07:17:59.900Z,78.57
2023-05-08T07:20:26.418Z,78.13
2023-05-08T07:22:52.845Z,78.82
2023-05-08T07:25:19.181Z,82.28
2023-05-08T07:27:45.567Z,76.82
2023-05-08T07:30:11.997Z,78.18
2023-05-08T07:32:41.156Z,73.25
2023-05-08T07:35:11.011Z,76.85
2023-05-08T07:37:37.759Z,85.65
2023-05-08T07:40:04.223Z,88.25
2023-05-08T07:42:30.656Z,23.67
2023-05-08T07:44:56.958Z,23.65
2023-05-08T07:47:23.381Z,25.42
2023-05-08T07:49:49.816Z,27.08
2023-05-08T07:52:16.740Z,26.98
2023-05-08T07:54:43.852Z,27.77
2023-05-08T07:57:10.281Z,31.73
2023-05-08T07:59:36.577Z,72.15
2023-05-08T08:02:03.029Z,83.50
2023-05-08T08:04:29.526Z,89.38
2023-05-08T08:06:56.058Z,95.72
2023-05-08T08:09:22.391Z,84.75
2023-05-08T08:11:48.681Z,87.57
2023-05-08T08:14:15.051Z,91.05
2023-05-08T08:16:42.594Z,100.80
2023-05-08T08:19:09.099Z,90.25
2023-05-08T08:21:35.415Z,89.90
2023-05-08T08:24:01.831Z,101.22
2023-05-08T08:26:28.188Z,92.78
2023-05-08T08:28:54.483Z,99.40
2023-05-08T08:31:20.869Z,99.05
2023-05-08T08:33:47.191Z,114.10
2023-05-08T08:36:13.969Z,97.57
2023-05-08T08:38:40.531Z,90.55
2023-05-08T08:41:07.081Z,107.13
2023-05-08T08:43:34.607Z,100.80
2023-05-08T08:46:09.026Z,107.20
2023-05-08T08:48:37.364Z,115.05
2023-05-08T08:51:06.869Z,98.20
2023-05-08T08:53:37.367Z,92.05
2023-05-08T08:56:07.322Z,112.07
2023-05-08T08:58:38.977Z,110.95
2023-05-08T09:01:07.757Z,117.93
2023-05-08T09:03:34.316Z,116.10
2023-05-08T09:06:03.830Z,91.25
2023-05-08T09:08:30.651Z,127.38
2023-05-08T09:10:57.017Z,126.93
2023-05-08T09:13:23.482Z,137.73
2023-05-08T09:15:50.754Z,125.40
2023-05-08T09:18:17.616Z,124.55
2023-05-08T09:20:44.551Z,116.93
2023-05-08T09:23:11.453Z,127.80
2023-05-08T09:25:41.176Z,121.65
2023-05-08T09:28:15.618Z,137.93
2023-05-08T09:30:49.030Z,120.35
2023-05-08T09:33:15.634Z,143.90
2023-05-08T09:35:42.009Z,133.50
2023-05-08T09:38:08.297Z,135.85
2023-05-08T09:40:34.789Z,138.95
2023-05-08T09:43:13.916Z,156.30
2023-05-08T09:45:41.429Z,150.32
2023-05-08T09:48:08.823Z,138.57
2023-05-08T09:50:35.441Z,136.73
2023-05-08T09:53:01.800Z,136.65
2023-05-08T09:55:28.172Z,136.55
2023-05-08T09:57:58.112Z,139.38
2023-05-08T10:00:27.948Z,133.38
2023-05-08T10:02:56.199Z,124.90
2023-05-08T10:05:22.878Z,135.80
2023-05-08T10:07:49.362Z,133.57
2023-05-08T10:10:22.095Z,128.35
2023-05-08T10:12:48.460Z,130.65
2023-05-08T10:15:14.787Z,134.43
2023-05-08T10:17:44.041Z,127.72
2023-05-08T10:20:11.377Z,122.18
2023-05-08T10:22:37.924Z,124.72
2023-05-08T10:25:07.804Z,112.65
2023-05-08T10:27:55.265Z,124.47
2023-05-08T10:30:25.237Z,123.82
2023-05-08T10:32:55.243Z,129.95
2023-05-08T10:35:21.995Z,143.88
2023-05-08T10:37:48.945Z,128.93
2023-05-08T10:40:21.693Z,124.60
2023-05-08T10:42:48.401Z,131.93
2023-05-08T10:45:15.065Z,114.80
2023-05-08T10:47:46.049Z,125.78
2023-05-08T10:50:18.638Z,123.43
2023-05-08T10:52:51.119Z,111.13
2023-05-08T10:55:33.810Z,120.55
2023-05-08T10:58:03.610Z,117.65
2023-05-08T11:00:48.667Z,118.45
2023-05-08T11:03:29.951Z,122.03
2023-05-08T11:05:58.975Z,115.22
2023-05-08T11:08:27.341Z,122.55
2023-05-08T11:10:53.620Z,119.00
2023-05-08T11:13:27.475Z,118.57
2023-05-08T11:15:54.039Z,108.78
2023-05-08T11:18:21.990Z,115.28
2023-05-08T11:20:55.878Z,116.15
2023-05-08T11:23:25.079Z,109.35
2023-05-08T11:26:12.126Z,111.60
2023-05-08T11:28:39.375Z,9.55
2023-05-08T11:31:07.030Z,103.68
2023-05-08T11:33:34.360Z,100.47
2023-05-08T11:36:11.956Z,108.88
2023-05-08T11:38:38.519Z,105.15
2023-05-08T11:41:06.202Z,105.75
2023-05-08T11:43:32.626Z,95.25
2023-05-08T11:46:06.384Z,83.35
2023-05-08T11:48:33.319Z,73.72
2023-05-08T11:51:00.012Z,84.40
2023-05-08T11:53:26.690Z,71.35
2023-05-08T11:55:53.699Z,73.55
2023-05-08T11:58:20.142Z,81.30
2023-05-08T12:00:48.695Z,69.50
2023-05-08T12:03:19.064Z,69.88
2023-05-08T12:05:45.983Z,73.20
2023-05-08T12:08:13.375Z,65.72
2023-05-08T12:10:46.932Z,73.22
2023-05-08T12:13:29.481Z,63.50
2023-05-08T12:16:00.019Z,67.55
2023-05-08T12:18:27.702Z,67.13
2023-05-08T12:20:58.401Z,65.50
2023-05-08T12:23:25.023Z,61.70
2023-05-08T12:25:55.544Z,58.78
2023-05-08T12:28:22.152Z,52.63
2023-05-08T12:30:49.070Z,53.17
2023-05-08T12:33:16.164Z,54.15
2023-05-08T12:35:42.631Z,52.15
2023-05-08T12:38:09.102Z,50.78
2023-05-08T12:40:40.036Z,47.72
2023-05-08T12:43:06.326Z,44.85
2023-05-08T12:45:33.913Z,44.20
2023-05-08T12:48:04.042Z,40.63
2023-05-08T12:50:34.197Z,38.47
2023-05-08T12:53:19.984Z,37.58
2023-05-08T12:55:55.433Z,38.85
2023-05-08T12:58:26.126Z,37.10
2023-05-08T13:00:53.773Z,35.78
2023-05-08T13:03:29.679Z,31.15
2023-05-08T13:05:57.011Z,37.90
2023-05-08T13:08:49.756Z,43.72
2023-05-08T13:11:27.848Z,40.78
2023-05-08T13:13:54.148Z,39.50
2023-05-08T13:16:20.515Z,35.05
2023-05-08T13:18:46.852Z,39.83
2023-05-08T13:21:13.177Z,31.90
2023-05-08T13:23:40.048Z,29.00
2023-05-08T13:26:06.348Z,25.55
2023-05-08T13:28:32.665Z,32.13
2023-05-08T13:30:58.995Z,34.30
2023-05-08T13:33:25.322Z,32.55
2023-05-08T13:35:51.669Z,39.42
2023-05-08T13:38:18.024Z,34.83
2023-05-08T13:40:44.462Z,36.28
2023-05-08T13:43:10.790Z,36.28
2023-05-08T13:45:37.216Z,40.22
2023-05-08T13:48:04.173Z,37.05
2023-05-08T13:50:30.686Z,41.10
2023-05-08T13:52:57.126Z,40.15
2023-05-08T13:55:23.690Z,37.10
2023-05-08T13:57:50.209Z,42.88
2023-05-08T14:00:16.805Z,34.15
2023-05-08T14:02:44.354Z,33.85
2023-05-08T14:05:11.053Z,35.10
2023-05-08T14:07:37.653Z,39.97
2023-05-08T14:10:04.431Z,15.45
2023-05-08T14:12:30.987Z,33.60
2023-05-08T14:14:58.186Z,32.08
2023-05-08T14:17:24.557Z,35.70
2023-05-08T14:19:50.873Z,38.33
2023-05-08T14:22:17.283Z,32.47
2023-05-08T14:24:44.336Z,32.97
2023-05-08T14:27:10.770Z,30.30
2023-05-08T14:29:37.210Z,28.25
2023-05-08T14:32:03.874Z,27.70
2023-05-08T14:34:30.260Z,27.95
2023-05-08T14:36:56.680Z,29.30
2023-05-08T14:39:23.037Z,29.92
2023-05-08T14:42:10.301Z,29.00
2023-05-08T14:44:36.082Z,27.45
2023-05-08T14:47:02.417Z,28.05
2023-05-08T14:49:37.339Z,30.33
2023-05-08T14:52:05.474Z,29.88
2023-05-08T14:54:32.028Z,34.08
2023-05-08T14:56:58.453Z,29.65
2023-05-08T14:59:24.823Z,17.73
2023-05-08T15:01:51.361Z,16.35
2023-05-08T15:04:17.899Z,16.20
2023-05-08T15:06:44.386Z,15.63
2023-05-08T15:09:10.859Z,17.98
2023-05-08T15:11:37.248Z,16.13
2023-05-08T15:14:04.466Z,17.27
2023-05-08T15:16:31.103Z,16.75
2023-05-08T15:18:57.461Z,35.67
2023-05-08T15:21:26.581Z,47.30
2023-05-08T15:23:53.969Z,50.65
2023-05-08T15:26:20.922Z,52.25
2023-05-08T15:28:47.369Z,46.75
2023-05-08T15:31:15.528Z,47.47
2023-05-08T15:33:44.839Z,53.10
2023-05-08T15:36:12.188Z,45.63
2023-05-08T15:38:38.635Z,45.15
2023-05-08T15:41:05.236Z,46.20
2023-05-08T15:43:31.658Z,44.80
2023-05-08T15:45:58.031Z,42.50
2023-05-08T15:48:24.377Z,39.83
2023-05-08T15:50:50.820Z,46.50
2023-05-08T15:53:17.120Z,48.00
2023-05-08T15:55:43.477Z,49.15
2023-05-08T15:58:09.829Z,42.45
2023-05-08T16:00:44.159Z,36.47
2023-05-08T16:03:11.564Z,42.83
2023-05-08T16:05:39.425Z,49.13
2023-05-08T16:08:05.986Z,47.22
2023-05-08T16:10:32.338Z,43.08
2023-05-08T16:12:58.800Z,45.10
2023-05-08T16:15:25.408Z,45.40
2023-05-08T16:17:51.778Z,44.70
2023-05-08T16:20:18.122Z,42.75
2023-05-08T16:22:44.488Z,41.72
2023-05-08T16:25:11.088Z,48.83
2023-05-08T16:27:37.566Z,50.88
2023-05-08T16:30:04.288Z,45.28
2023-05-08T16:32:30.842Z,42.97
2023-05-08T16:34:57.197Z,45.10
2023-05-08T16:37:23.504Z,44.15
2023-05-08T16:39:49.822Z,27.27
2023-05-08T16:42:16.165Z,35.95
2023-05-08T16:44:42.503Z,30.65
2023-05-08T16:47:08.966Z,39.33
2023-05-08T16:49:35.465Z,42.10
2023-05-08T16:52:01.845Z,42.65
2023-05-08T16:54:28.169Z,44.20
2023-05-08T16:56:54.580Z,48.78
2023-05-08T16:59:20.915Z,47.05
2023-05-08T17:01:47.281Z,28.40
2023-05-08T17:04:13.631Z,33.25
2023-05-08T17:06:42.628Z,29.85
2023-05-08T17:09:09.052Z,31.40
2023-05-08T17:11:35.382Z,29.25
2023-05-08T17:14:01.846Z,34.85
2023-05-08T17:16:28.291Z,29.98
2023-05-08T17:18:54.912Z,16.73
2023-05-08T17:21:21.372Z,26.95
2023-05-08T17:23:47.707Z,29.55
2023-05-08T17:26:14.035Z,30.42
2023-05-08T17:28:40.378Z,32.40
2023-05-08T17:31:06.908Z,31.40
2023-05-08T17:33:33.577Z,31.60
2023-05-08T17:36:00.814Z,34.28
2023-05-08T17:38:27.807Z,35.50
2023-05-08T17:40:54.172Z,32.67
2023-05-08T17:43:20.881Z,34.25
2023-05-08T17:45:47.469Z,31.33
2023-05-08T17:48:14.166Z,34.55
2023-05-08T17:50:42.237Z,33.63
2023-05-08T17:53:08.754Z,16.02
2023-05-08T17:55:35.069Z,31.83
2023-05-08T17:58:01.475Z,34.67
2023-05-08T18:00:27.818Z,42.85
2023-05-08T18:02:54.530Z,36.35
2023-05-08T18:05:20.930Z,38.58
2023-05-08T18:07:47.230Z,41.08
2023-05-08T18:10:13.803Z,42.05
2023-05-08T18:12:40.489Z,40.38
2023-05-08T18:15:07.428Z,42.38
2023-05-08T18:17:33.792Z,39.25
2023-05-08T18:20:03.923Z,39.88
2023-05-08T18:22:31.089Z,35.83
2023-05-08T18:24:57.645Z,41.67
2023-05-08T18:27:24.325Z,42.17
2023-05-08T18:29:50.656Z,42.88
2023-05-08T18:32:17.089Z,40.05
2023-05-08T18:34:43.400Z,45.08
2023-05-08T18:37:09.900Z,43.45
2023-05-08T18:39:36.230Z,46.00
2023-05-08T18:42:02.556Z,45.67
2023-05-08T18:44:28.929Z,43.95
2023-05-08T18:46:56.363Z,44.70
2023-05-08T18:49:22.702Z,45.67
2023-05-08T18:51:52.112Z,47.38
2023-05-08T18:54:18.401Z,47.35
2023-05-08T18:56:44.854Z,20.27
2023-05-08T18:59:11.253Z,19.45
2023-05-08T19:01:37.732Z,18.27
2023-05-08T19:04:04.379Z,19.95
2023-05-08T19:06:31.392Z,44.13
2023-05-08T19:08:58.159Z,44.88
2023-05-08T19:11:25.994Z,45.67
2023-05-08T19:13:52.376Z,76.43
2023-05-08T19:16:18.726Z,72.00
2023-05-08T19:18:45.110Z,74.57
2023-05-08T19:21:11.415Z,86.90
2023-05-08T19:23:37.833Z,90.53
2023-05-08T19:26:04.279Z,91.75
2023-05-08T19:28:30.699Z,97.20
2023-05-08T19:30:57.017Z,96.85
2023-05-08T19:33:23.517Z,87.32
2023-05-08T19:35:50.017Z,97.38
2023-05-08T19:38:16.488Z,36.60
2023-05-08T19:40:55.747Z,47.60
2023-05-08T19:43:23.973Z,40.78
2023-05-08T19:45:50.309Z,72.28
2023-05-08T19:48:18.249Z,76.95
2023-05-08T19:50:44.910Z,75.45
2023-05-08T19:53:11.211Z,74.13
2023-05-08T19:55:37.520Z,71.18
2023-05-08T19:58:03.885Z,78.40
2023-05-08T20:00:30.218Z,80.95
2023-05-08T20:02:56.694Z,75.07
2023-05-08T20:05:23.463Z,80.55
2023-05-08T20:07:50.059Z,74.65
2023-05-08T20:10:17.018Z,87.30
2023-05-08T20:12:43.485Z,82.28
2023-05-08T20:15:10.052Z,79.50
2023-05-08T20:17:36.549Z,77.53
2023-05-08T20:20:03.320Z,89.93
2023-05-08T20:22:29.672Z,82.38
2023-05-08T20:24:56.100Z,93.53
2023-05-08T20:27:22.529Z,83.03
2023-05-08T20:29:48.838Z,193.88
2023-05-08T20:32:16.434Z,67.57
2023-05-08T20:34:44.521Z,68.88
2023-05-08T20:37:10.958Z,69.50
2023-05-08T20:39:37.323Z,65.53
2023-05-08T20:42:03.747Z,70.35
2023-05-08T20:44:30.083Z,67.00
2023-05-08T20:46:56.436Z,78.18
2023-05-08T20:49:22.762Z,76.18
2023-05-08T20:51:49.211Z,47.30
2023-05-08T20:54:15.504Z,66.30
2023-05-08T20:56:41.833Z,67.65
2023-05-08T20:59:08.375Z,71.97
2023-05-08T21:01:34.792Z,68.00
2023-05-08T21:04:01.180Z,78.88
2023-05-08T21:06:27.596Z,73.55
2023-05-08T21:08:54.060Z,74.90
2023-05-08T21:11:21.228Z,104.15
2023-05-08T21:13:47.666Z,102.50
2023-05-08T21:16:14.088Z,103.47
2023-05-08T21:18:40.545Z,105.63
2023-05-08T21:21:17.045Z,100.30
2023-05-08T21:23:43.567Z,92.40
2023-05-08T21:26:10.020Z,94.30
2023-05-08T21:28:36.411Z,99.25
2023-05-08T21:31:03.019Z,96.55
2023-05-08T21:33:29.772Z,108.22
2023-05-08T21:35:56.113Z,103.30
2023-05-08T21:38:22.423Z,97.72
2023-05-08T21:40:48.768Z,102.55
2023-05-08T21:43:15.068Z,98.53
2023-05-08T21:45:41.631Z,103.10
2023-05-08T21:48:08.000Z,64.50
2023-05-08T21:50:34.334Z,56.95
2023-05-08T21:53:01.747Z,81.00
2023-05-08T21:55:29.039Z,57.20
2023-05-08T21:57:56.217Z,61.28
2023-05-08T22:00:22.530Z,47.17
2023-05-08T22:02:49.026Z,69.95
2023-05-08T22:05:15.715Z,54.38
2023-05-08T22:07:42.216Z,86.75
2023-05-08T22:10:09.394Z,70.93
2023-05-08T22:12:35.825Z,81.10
2023-05-08T22:15:02.532Z,84.13
2023-05-08T22:17:28.884Z,91.00
2023-05-08T22:19:55.329Z,87.55
2023-05-08T22:22:22.017Z,82.53
2023-05-08T22:24:48.327Z,69.78
2023-05-08T22:27:14.676Z,73.38
2023-05-08T22:29:41.056Z,81.50
2023-05-08T22:32:08.392Z,74.65
2023-05-08T22:34:34.832Z,90.97
2023-05-08T22:37:01.301Z,74.28
2023-05-08T22:39:27.668Z,71.70
2023-05-08T22:41:54.369Z,91.57
2023-05-08T22:44:21.148Z,86.43
2023-05-08T22:46:47.671Z,77.68
2023-05-08T22:49:14.112Z,86.05
2023-05-08T22:51:40.472Z,93.22
2023-05-08T22:54:06.979Z,78.65
2023-05-08T22:56:33.487Z,95.25
2023-05-08T22:58:59.888Z,81.63
2023-05-08T23:01:26.344Z,92.78
2023-05-08T23:03:53.727Z,65.82
2023-05-08T23:06:20.702Z,76.68
2023-05-08T23:08:47.090Z,97.57
2023-05-08T23:11:13.641Z,79.63
2023-05-08T23:13:39.965Z,67.20
2023-05-08T23:16:06.615Z,96.68
2023-05-08T23:18:34.156Z,90.35
2023-05-08T23:21:06.988Z,75.05
2023-05-08T23:23:33.689Z,84.15
2023-05-08T23:26:01.165Z,52.15
2023-05-08T23:28:27.560Z,53.55
2023-05-08T23:30:54.005Z,52.63
2023-05-08T23:33:20.405Z,69.15
2023-05-08T23:35:46.790Z,45.92
2023-05-08T23:38:13.119Z,43.13
2023-05-08T23:40:39.414Z,40.38
2023-05-08T23:43:06.230Z,87.68
2023-05-08T23:45:32.556Z,72.45
2023-05-08T23:47:59.001Z,55.67
2023-05-08T23:50:25.595Z,76.53
2023-05-08T23:52:51.898Z,66.70
2023-05-08T23:55:18.273Z,83.25
2023-05-08T23:57:44.601Z,61.30
